Time;durP1;ratioP1;P1;durP2;ratioP2;P2;SDS_P1;SDS_P2;PMS_P1;PMS_P2;Temp;Humidity;BMP_temperature;BMP_pressure;BME280_temperature;BME280_humidity;BME280_pressure;Samples;Min_cycle;Max_cycle;Signal;HPM_P1;HPM_P2
2022/04/20 00:01:15;;;;;;;8.15;4.72;;;7.80;97.60;;;;;;4958295;28;20105;-84
2022/04/20 00:03:44;;;;;;;8.48;4.78;;;7.70;97.80;;;;;;4973444;28;20502;-84
2022/04/20 00:06:13;;;;;;;8.73;4.88;;;7.70;98.00;;;;;;4974058;28;20046;-84
2022/04/20 00:08:43;;;;;;;8.20;4.82;;;7.60;99.40;;;;;;4958164;28;20050;-84
2022/04/20 00:11:09;;;;;;;9.30;4.93;;;7.60;99.00;;;;;;4973928;28;20035;-84
2022/04/20 00:13:38;;;;;;;9.23;5.10;;;7.60;98.80;;;;;;4957451;28;20047;-84
2022/04/20 00:16:04;;;;;;;9.18;5.28;;;7.50;99.40;;;;;;4942019;28;20062;-84
2022/04/20 00:18:33;;;;;;;9.43;5.30;;;7.50;99.60;;;;;;4968748;28;20046;-84
2022/04/20 00:21:00;;;;;;;8.38;4.93;;;7.40;99.50;;;;;;4989243;28;20043;-84
2022/04/20 00:23:26;;;;;;;8.50;5.13;;;7.40;99.60;;;;;;4995555;28;20046;-84
2022/04/20 00:25:53;;;;;;;8.38;5.20;;;7.40;99.90;;;;;;5012974;28;20046;-84
2022/04/20 00:28:21;;;;;;;9.38;5.40;;;7.40;99.90;;;;;;5009829;28;20045;-84
2022/04/20 00:31:05;;;;;;;8.43;5.10;;;7.30;99.90;;;;;;4967576;28;20056;-84
2022/04/20 00:33:41;;;;;;;8.70;4.90;;;7.30;99.90;;;;;;5003226;28;20049;-84
2022/04/20 00:36:11;;;;;;;7.97;4.70;;;7.20;99.90;;;;;;4996934;28;20053;-84
2022/04/20 00:38:41;;;;;;;8.88;5.22;;;7.20;99.90;;;;;;4993682;28;20046;-84
2022/04/20 00:41:10;;;;;;;10.55;5.88;;;7.20;99.90;;;;;;4992472;28;20046;-84
2022/04/20 00:43:55;;;;;;;8.20;4.68;;;7.20;99.90;;;;;;5004756;28;20465;-84
2022/04/20 00:46:53;;;;;;;8.85;5.63;;;7.10;99.90;;;;;;4996100;28;20046;-84
2022/04/20 00:49:23;;;;;;;9.60;5.65;;;7.10;99.90;;;;;;4991511;28;20070;-84
2022/04/20 00:51:56;;;;;;;8.38;4.90;;;7.10;99.90;;;;;;4976330;28;20581;-84
2022/04/20 00:54:25;;;;;;;11.18;6.40;;;7.00;99.90;;;;;;4974753;28;20571;-84
2022/04/20 00:56:51;;;;;;;9.88;6.13;;;7.10;99.90;;;;;;4992581;28;20041;-84
2022/04/20 00:59:20;;;;;;;8.00;5.00;;;7.00;99.90;;;;;;4975964;28;20035;-84
2022/04/20 01:01:46;;;;;;;9.18;5.50;;;7.00;99.90;;;;;;4976643;28;20069;-84
2022/04/20 01:04:12;;;;;;;10.15;6.28;;;7.00;99.90;;;;;;4975050;28;20050;-84
2022/04/20 01:06:38;;;;;;;8.52;5.75;;;6.90;99.90;;;;;;4976208;28;20042;-84
2022/04/20 01:09:03;;;;;;;8.93;5.80;;;6.90;99.90;;;;;;4975818;28;20042;-84
2022/04/20 01:11:30;;;;;;;9.43;5.78;;;6.90;99.90;;;;;;4975922;28;20378;-84
2022/04/20 01:13:55;;;;;;;9.30;5.75;;;6.90;99.90;;;;;;4991992;28;20051;-84
2022/04/20 01:16:21;;;;;;;10.93;5.95;;;6.90;99.90;;;;;;4975968;28;20043;-84
2022/04/20 01:18:51;;;;;;;10.23;6.15;;;6.90;99.90;;;;;;4991145;28;20093;-84
2022/04/20 01:21:16;;;;;;;12.18;6.28;;;6.90;99.90;;;;;;4976294;28;20042;-84
2022/04/20 01:23:42;;;;;;;10.38;5.57;;;6.90;99.90;;;;;;4975877;28;20042;-84
2022/04/20 01:26:09;;;;;;;9.02;5.70;;;6.90;99.90;;;;;;4975872;28;20117;-84
2022/04/20 01:28:36;;;;;;;9.02;6.03;;;6.80;99.90;;;;;;4980341;28;20046;-84
2022/04/20 01:31:03;;;;;;;10.68;6.18;;;6.80;99.90;;;;;;5013223;28;20563;-84
2022/04/20 01:33:29;;;;;;;9.45;6.22;;;6.80;99.90;;;;;;4998029;28;20397;-84
2022/04/20 01:35:55;;;;;;;10.38;6.28;;;6.80;99.90;;;;;;4998836;28;20046;-84
2022/04/20 01:38:20;;;;;;;9.18;6.13;;;6.70;99.90;;;;;;4979549;28;20038;-84
2022/04/20 01:40:46;;;;;;;10.50;6.40;;;6.60;99.90;;;;;;4979548;28;20128;-84
2022/04/20 01:43:12;;;;;;;11.07;6.82;;;6.60;99.90;;;;;;4975947;28;20042;-84
2022/04/20 01:45:38;;;;;;;13.10;6.65;;;6.60;99.90;;;;;;4976279;28;20530;-85
2022/04/20 01:48:03;;;;;;;10.18;6.43;;;6.50;99.90;;;;;;4974922;28;20047;-85
2022/04/20 01:50:29;;;;;;;10.27;6.07;;;6.50;99.90;;;;;;4959859;28;20061;-85
2022/04/20 01:52:55;;;;;;;9.38;5.95;;;6.50;99.90;;;;;;4991798;28;20465;-85
2022/04/20 01:55:21;;;;;;;10.45;6.28;;;6.60;99.90;;;;;;4959988;28;20053;-85
2022/04/20 01:57:47;;;;;;;10.48;6.32;;;6.60;99.90;;;;;;4959413;28;20074;-85
2022/04/20 02:00:13;;;;;;;10.85;6.60;;;6.60;99.90;;;;;;4959532;28;20043;-85
2022/04/20 02:02:39;;;;;;;10.75;6.40;;;6.60;99.90;;;;;;4958705;28;20148;-85
2022/04/20 02:05:07;;;;;;;12.57;6.53;;;6.60;99.90;;;;;;4975590;28;20046;-84
2022/04/20 02:07:33;;;;;;;9.23;6.78;;;6.60;99.90;;;;;;4975509;28;20082;-84
2022/04/20 02:10:00;;;;;;;9.90;6.28;;;6.60;99.90;;;;;;4960179;28;20521;-84
2022/04/20 02:12:26;;;;;;;9.77;6.63;;;6.50;99.90;;;;;;4977734;28;20048;-84
2022/04/20 02:14:52;;;;;;;11.18;6.53;;;6.50;99.90;;;;;;4978520;28;20046;-84
2022/04/20 02:17:17;;;;;;;10.32;6.30;;;6.50;99.90;;;;;;4977937;28;20038;-84
2022/04/20 02:19:43;;;;;;;10.57;6.53;;;6.50;99.90;;;;;;4995035;28;20498;-84
2022/04/20 02:22:09;;;;;;;9.93;6.47;;;6.50;99.90;;;;;;4962385;28;20049;-84
2022/04/20 02:24:34;;;;;;;9.40;5.78;;;6.50;99.90;;;;;;4962574;28;20112;-84
2022/04/20 02:27:00;;;;;;;12.93;6.80;;;6.50;99.90;;;;;;4962400;28;20046;-84
2022/04/20 02:29:26;;;;;;;10.15;6.57;;;6.50;99.90;;;;;;4975588;28;20045;-84
2022/04/20 02:31:52;;;;;;;11.20;7.00;;;6.90;99.90;;;;;;4998098;28;20049;-84
2022/04/20 02:34:17;;;;;;;12.88;7.15;;;6.40;99.90;;;;;;4978766;28;20042;-84
2022/04/20 02:36:43;;;;;;;11.38;7.07;;;6.30;99.90;;;;;;4990302;28;20125;-84
2022/04/20 02:39:09;;;;;;;9.63;6.57;;;6.80;99.90;;;;;;4977947;28;20034;-84
2022/04/20 02:41:37;;;;;;;12.23;7.60;;;6.10;99.90;;;;;;4994379;28;20140;-84
2022/04/20 02:44:07;;;;;;;12.07;6.57;;;6.00;99.90;;;;;;4977481;28;20042;-84
2022/04/20 02:46:34;;;;;;;11.95;6.93;;;6.00;99.90;;;;;;4978075;28;20030;-84
2022/04/20 02:49:00;;;;;;;14.13;7.10;;;6.00;99.90;;;;;;4977189;28;20034;-84
2022/04/20 02:51:26;;;;;;;11.77;7.35;;;6.00;99.90;;;;;;4994409;28;20458;-84
2022/04/20 02:53:51;;;;;;;11.40;7.43;;;6.00;99.90;;;;;;4993887;28;20125;-84
2022/04/20 02:56:18;;;;;;;12.93;6.80;;;6.00;99.90;;;;;;4978066;28;20133;-84
2022/04/20 02:58:43;;;;;;;10.82;6.70;;;6.40;99.90;;;;;;4994011;28;20042;-84
2022/04/20 03:01:09;;;;;;;11.82;7.35;;;6.00;99.90;;;;;;4993923;28;20069;-84
2022/04/20 03:03:35;;;;;;;11.25;7.18;;;5.90;99.90;;;;;;4993252;28;20042;-84
2022/04/20 03:06:01;;;;;;;11.93;7.20;;;5.90;99.90;;;;;;4993941;28;20133;-84
2022/04/20 03:08:27;;;;;;;11.00;7.05;;;5.90;99.90;;;;;;4988598;28;20552;-84
2022/04/20 03:10:53;;;;;;;15.23;7.53;;;5.80;99.90;;;;;;4991609;28;20042;-84
2022/04/20 03:13:19;;;;;;;11.63;7.28;;;5.80;99.90;;;;;;4957945;28;20553;-84
2022/04/20 03:15:46;;;;;;;12.10;7.55;;;5.90;99.90;;;;;;4973552;28;20063;-84
2022/04/20 03:18:12;;;;;;;10.00;6.80;;;5.70;99.90;;;;;;4957708;28;20039;-84
2022/04/20 03:20:38;;;;;;;9.95;6.95;;;5.80;99.90;;;;;;4974812;28;20402;-84
2022/04/20 03:23:06;;;;;;;10.65;7.60;;;5.80;99.90;;;;;;4957994;28;20054;-84
2022/04/20 03:25:31;;;;;;;10.68;6.75;;;5.80;99.90;;;;;;4974314;28;20039;-84
2022/04/20 03:27:57;;;;;;;11.18;7.47;;;5.70;99.90;;;;;;4957789;28;20417;-84
2022/04/20 03:30:23;;;;;;;9.32;6.03;;;6.10;99.90;;;;;;5008839;28;20042;-84
2022/04/20 03:32:49;;;;;;;10.65;7.03;;;5.60;99.90;;;;;;5011910;28;20050;-84
2022/04/20 03:35:16;;;;;;;10.80;7.10;;;5.60;99.90;;;;;;5012968;28;20045;-84
2022/04/20 03:37:41;;;;;;;11.48;7.03;;;5.70;99.90;;;;;;4996458;28;20046;-84
2022/04/20 03:40:08;;;;;;;11.25;6.85;;;5.60;99.90;;;;;;4996537;28;20034;-84
2022/04/20 03:42:34;;;;;;;11.63;7.15;;;5.60;99.90;;;;;;5012963;28;20556;-84
2022/04/20 03:45:00;;;;;;;12.02;7.70;;;5.60;99.90;;;;;;4975492;28;20038;-84
2022/04/20 03:51:07;;;;;;;11.43;7.35;;;5.40;99.90;;;;;;5008338;28;20042;-84
2022/04/20 03:53:33;;;;;;;14.38;7.78;;;5.40;99.90;;;;;;4995730;28;20042;-84
2022/04/20 03:55:58;;;;;;;10.60;7.22;;;5.30;99.90;;;;;;4995950;28;20038;-84
2022/04/20 03:58:24;;;;;;;11.40;7.65;;;5.40;99.90;;;;;;4996080;28;20046;-84
2022/04/20 04:00:51;;;;;;;11.20;7.18;;;5.30;99.90;;;;;;4996297;28;20038;-84
2022/04/20 04:03:18;;;;;;;12.02;7.60;;;5.30;99.90;;;;;;4995158;28;20104;-84
2022/04/20 04:05:43;;;;;;;12.73;7.68;;;5.30;99.90;;;;;;4996245;28;20041;-84
2022/04/20 04:08:09;;;;;;;14.07;7.70;;;5.30;99.90;;;;;;4996065;28;20113;-84
2022/04/20 04:10:36;;;;;;;11.98;8.00;;;5.10;99.90;;;;;;4996040;28;20037;-84
2022/04/20 04:13:01;;;;;;;10.32;7.07;;;5.00;99.90;;;;;;4995906;28;20045;-84
2022/04/20 04:15:28;;;;;;;12.90;7.65;;;5.10;99.90;;;;;;4996050;28;20050;-84
2022/04/20 04:17:54;;;;;;;13.25;7.60;;;5.00;99.90;;;;;;5011677;28;20498;-84
2022/04/20 04:20:21;;;;;;;10.43;6.97;;;5.00;99.90;;;;;;4996084;28;20042;-84
2022/04/20 04:22:49;;;;;;;10.30;7.22;;;5.00;99.90;;;;;;5012171;28;20053;-84
2022/04/20 04:25:16;;;;;;;13.15;7.68;;;5.00;99.90;;;;;;4996007;28;20042;-84
2022/04/20 04:27:41;;;;;;;10.25;6.85;;;5.10;99.90;;;;;;5012102;28;20037;-84
2022/04/20 04:30:07;;;;;;;12.05;7.05;;;5.10;99.90;;;;;;4994211;28;20038;-84
2022/04/20 04:32:33;;;;;;;11.25;6.82;;;5.00;99.90;;;;;;4987422;28;20066;-84
2022/04/20 04:35:01;;;;;;;10.52;6.63;;;5.50;99.90;;;;;;4973121;28;20109;-84
2022/04/20 04:37:27;;;;;;;10.63;7.07;;;5.10;99.90;;;;;;4972853;28;20074;-84
2022/04/20 04:39:53;;;;;;;12.38;6.90;;;5.20;99.90;;;;;;4989375;28;20042;-84
2022/04/20 04:42:19;;;;;;;12.32;7.22;;;5.30;99.90;;;;;;4988977;28;20449;-84
2022/04/20 04:44:45;;;;;;;12.40;7.40;;;5.20;99.90;;;;;;4972941;28;20507;-84
2022/04/20 04:50:08;;;;;;;11.57;6.80;;;5.10;99.90;;;;;;4973999;28;20596;-84
2022/04/20 04:52:34;;;;;;;13.00;7.25;;;5.00;99.90;;;;;;4972661;28;20059;-84
2022/04/20 04:55:00;;;;;;;10.65;6.40;;;5.10;99.90;;;;;;4973090;28;20097;-84
2022/04/20 04:57:25;;;;;;;11.57;7.05;;;5.10;99.90;;;;;;4972956;28;20035;-84
2022/04/20 04:59:51;;;;;;;9.77;6.90;;;5.10;99.90;;;;;;4972895;28;20038;-84
2022/04/20 05:02:17;;;;;;;11.40;6.72;;;5.10;99.90;;;;;;4972321;28;20486;-84
2022/04/20 05:04:42;;;;;;;10.65;6.72;;;5.10;99.90;;;;;;4972648;28;20047;-84
2022/04/20 05:07:09;;;;;;;10.73;6.35;;;5.00;99.90;;;;;;4975848;28;20482;-84
2022/04/20 05:09:35;;;;;;;10.05;6.43;;;5.10;99.90;;;;;;4992873;28;20050;-84
2022/04/20 05:12:01;;;;;;;13.73;7.13;;;5.10;99.90;;;;;;4976308;28;20047;-84
2022/04/20 05:14:27;;;;;;;10.07;6.57;;;5.40;99.90;;;;;;4960367;28;20128;-84
2022/04/20 05:16:52;;;;;;;10.10;6.50;;;5.30;99.90;;;;;;4976498;28;20048;-84
2022/04/20 05:19:18;;;;;;;10.48;6.93;;;5.40;99.90;;;;;;4975522;28;20043;-84
2022/04/20 05:21:44;;;;;;;10.32;6.38;;;5.50;99.90;;;;;;4976471;28;20042;-84
2022/04/20 05:24:10;;;;;;;9.88;6.72;;;5.70;99.90;;;;;;4976235;28;20513;-84
2022/04/20 05:26:35;;;;;;;11.98;6.88;;;5.90;99.90;;;;;;4976424;28;20058;-84
2022/04/20 05:29:01;;;;;;;11.68;6.78;;;6.00;99.90;;;;;;5006573;28;20439;-84
2022/04/20 05:31:27;;;;;;;9.52;6.72;;;6.30;99.90;;;;;;4990573;28;20037;-84
2022/04/20 05:33:53;;;;;;;10.93;6.97;;;6.30;99.90;;;;;;4962236;28;20043;-84
2022/04/20 05:36:18;;;;;;;10.00;6.50;;;6.40;99.90;;;;;;4980040;28;20041;-84
2022/04/20 05:41:39;;;;;;;10.35;6.80;;;6.80;99.90;;;;;;5000530;28;20034;-84
2022/04/20 05:44:06;;;;;;;9.48;6.22;;;6.70;99.90;;;;;;4981022;28;20470;-84
2022/04/20 05:46:33;;;;;;;10.60;6.45;;;6.50;99.90;;;;;;5000267;28;20038;-84
2022/04/20 05:48:59;;;;;;;9.85;6.30;;;6.50;99.90;;;;;;4980892;28;20030;-84
2022/04/20 05:51:25;;;;;;;10.75;6.43;;;7.10;99.90;;;;;;4981106;28;20034;-84
2022/04/20 05:53:50;;;;;;;10.70;6.30;;;7.10;99.90;;;;;;4978215;28;20410;-84
2022/04/20 05:56:16;;;;;;;10.48;6.20;;;7.30;99.90;;;;;;4996210;28;20049;-84
2022/04/20 05:58:44;;;;;;;10.30;6.03;;;7.70;99.90;;;;;;4998103;28;20458;-84
2022/04/20 06:01:10;;;;;;;9.57;6.03;;;8.20;99.90;;;;;;4997558;28;20046;-84
2022/04/20 06:03:36;;;;;;;9.27;5.78;;;8.30;99.90;;;;;;4958587;28;20043;-84
2022/04/20 06:06:03;;;;;;;9.23;6.25;;;9.50;99.90;;;;;;4981571;28;20042;-83
2022/04/20 06:08:30;;;;;;;9.65;5.88;;;10.10;97.30;;;;;;4980500;28;20088;-83
2022/04/20 06:10:57;;;;;;;9.43;5.30;;;10.50;99.90;;;;;;4995064;28;20482;-83
2022/04/20 06:13:24;;;;;;;9.82;5.32;;;10.60;99.80;;;;;;4994679;28;20458;-83
2022/04/20 06:15:50;;;;;;;9.38;5.95;;;10.50;95.20;;;;;;4959511;28;20468;-83
2022/04/20 06:18:16;;;;;;;9.18;5.95;;;10.00;96.60;;;;;;4975714;28;20093;-83
2022/04/20 06:20:42;;;;;;;9.60;5.70;;;10.50;97.80;;;;;;4950674;28;20066;-84
2022/04/20 06:23:07;;;;;;;8.88;5.15;;;11.00;98.20;;;;;;4947504;28;20034;-84
2022/04/20 06:25:33;;;;;;;8.52;5.38;;;11.20;95.00;;;;;;4954597;28;20561;-84
2022/04/20 06:28:00;;;;;;;10.57;6.10;;;10.80;95.40;;;;;;4991735;28;20034;-84
2022/04/20 06:30:26;;;;;;;9.20;5.70;;;10.50;95.30;;;;;;4959069;28;20054;-84
2022/04/20 06:32:52;;;;;;;10.05;5.70;;;10.50;97.90;;;;;;4967691;28;20477;-84
2022/04/20 06:35:18;;;;;;;10.52;5.50;;;10.60;95.10;;;;;;4956030;29;20487;-84
2022/04/20 06:37:43;;;;;;;8.98;5.50;;;11.10;94.90;;;;;;4952756;28;20085;-84
2022/04/20 06:40:09;;;;;;;9.38;5.22;;;11.00;94.40;;;;;;4973289;28;20149;-84
2022/04/20 06:42:35;;;;;;;9.50;5.18;;;11.20;94.80;;;;;;4956088;28;20498;-84
2022/04/20 06:45:01;;;;;;;10.20;5.20;;;11.60;91.40;;;;;;4948845;28;20038;-84
2022/04/20 06:47:29;;;;;;;8.75;5.50;;;12.10;89.20;;;;;;4971161;28;20065;-84
2022/04/20 06:49:55;;;;;;;7.70;5.03;;;11.90;86.30;;;;;;4955184;28;20034;-84
2022/04/20 07:00:36;;;;;;;8.15;5.10;;;13.20;78.40;;;;;;4987479;28;20053;-84
2022/04/20 07:03:03;;;;;;;8.52;4.88;;;12.80;78.30;;;;;;4984011;28;20038;-84
2022/04/20 07:05:29;;;;;;;8.57;4.90;;;12.80;76.10;;;;;;4970656;28;20097;-84
2022/04/20 07:07:55;;;;;;;10.23;5.30;;;13.00;74.70;;;;;;4978977;28;20117;-84
2022/04/20 07:10:20;;;;;;;8.95;4.97;;;12.80;75.30;;;;;;4973424;28;20038;-85
2022/04/20 07:12:46;;;;;;;10.45;5.68;;;13.10;72.80;;;;;;4984565;28;20049;-85
2022/04/20 07:15:12;;;;;;;9.20;5.20;;;13.40;71.60;;;;;;4979725;28;20129;-85
2022/04/20 07:17:38;;;;;;;7.25;4.85;;;13.30;70.70;;;;;;5001715;28;20088;-85
2022/04/20 07:20:04;;;;;;;9.38;4.70;;;13.60;69.90;;;;;;4979928;28;20489;-85
2022/04/20 07:22:29;;;;;;;9.88;5.05;;;13.90;66.90;;;;;;4976469;28;20042;-85
2022/04/20 07:24:55;;;;;;;7.72;4.20;;;13.10;66.00;;;;;;4991221;28;20120;-85
2022/04/20 07:27:21;;;;;;;7.10;4.20;;;13.40;64.60;;;;;;4987771;28;20034;-85
2022/04/20 07:29:46;;;;;;;7.05;4.18;;;13.90;63.60;;;;;;4999520;28;20063;-85
2022/04/20 07:32:12;;;;;;;8.15;4.45;;;14.20;61.50;;;;;;4983970;28;20046;-84
2022/04/20 07:34:38;;;;;;;8.45;4.15;;;14.70;62.70;;;;;;5002241;28;20130;-84
2022/04/20 07:37:04;;;;;;;7.75;4.20;;;14.90;59.90;;;;;;4985671;28;20505;-84
2022/04/20 07:39:29;;;;;;;8.75;4.10;;;15.20;58.50;;;;;;4979802;28;20088;-84
2022/04/20 07:41:55;;;;;;;7.38;4.07;;;15.20;55.50;;;;;;5004260;28;20077;-84
2022/04/20 07:44:21;;;;;;;7.72;4.10;;;14.80;59.10;;;;;;4999867;28;20042;-84
2022/04/20 07:46:47;;;;;;;8.10;3.88;;;15.00;54.80;;;;;;4987436;28;20083;-84
2022/04/20 07:51:56;;;;;;;6.28;3.60;;;14.60;54.70;;;;;;5001808;28;20111;-84
2022/04/20 07:54:22;;;;;;;8.13;3.10;;;14.30;56.10;;;;;;4985537;28;20552;-84
2022/04/20 07:56:48;;;;;;;5.95;3.28;;;14.30;54.30;;;;;;4979210;28;20045;-84
2022/04/20 07:59:14;;;;;;;6.25;3.28;;;14.50;52.30;;;;;;4978835;28;20048;-84
2022/04/20 08:01:40;;;;;;;6.00;3.00;;;14.30;53.40;;;;;;4963501;28;20031;-84
2022/04/20 08:04:06;;;;;;;6.25;3.30;;;14.60;51.20;;;;;;4946164;28;20030;-84
2022/04/20 08:06:32;;;;;;;6.55;3.20;;;14.60;52.80;;;;;;4996203;28;20508;-84
2022/04/20 08:08:59;;;;;;;6.60;3.17;;;14.70;53.90;;;;;;4984137;28;20034;-84
2022/04/20 08:11:25;;;;;;;7.65;2.92;;;14.70;51.90;;;;;;4976531;28;20118;-84
2022/04/20 08:14:09;;;;;;;6.20;2.95;;;14.70;51.80;;;;;;4975981;28;20072;-84
2022/04/20 08:16:35;;;;;;;7.30;3.30;;;14.70;50.70;;;;;;4975259;28;20117;-84
2022/04/20 08:19:01;;;;;;;6.32;3.05;;;15.10;51.90;;;;;;4975540;28;20046;-84
2022/04/20 08:21:27;;;;;;;5.97;2.85;;;15.00;50.20;;;;;;4976724;28;20035;-84
2022/04/20 08:23:53;;;;;;;6.85;3.25;;;15.10;50.10;;;;;;4973878;28;20093;-84
2022/04/20 08:26:19;;;;;;;7.50;3.13;;;15.20;49.70;;;;;;4941478;28;20042;-84
2022/04/20 08:28:44;;;;;;;6.47;3.20;;;15.10;49.10;;;;;;4971883;28;20109;-84
2022/04/20 08:31:10;;;;;;;6.95;3.35;;;15.00;48.70;;;;;;4991683;28;20099;-84
2022/04/20 08:33:36;;;;;;;6.90;3.10;;;14.80;49.70;;;;;;5010743;28;20417;-84
2022/04/20 08:36:02;;;;;;;6.38;2.88;;;15.00;50.80;;;;;;4988469;28;20375;-84
2022/04/20 08:38:27;;;;;;;6.75;2.90;;;15.40;51.30;;;;;;4989573;28;20034;-84
2022/04/20 08:40:56;;;;;;;5.40;3.15;;;15.50;48.90;;;;;;4998115;28;20095;-85
2022/04/20 08:43:23;;;;;;;5.88;3.08;;;14.70;48.50;;;;;;4987663;28;20042;-85
2022/04/20 08:45:49;;;;;;;5.70;2.92;;;14.70;48.40;;;;;;4995019;28;20054;-84
2022/04/20 08:48:15;;;;;;;6.20;2.80;;;15.20;49.60;;;;;;5001359;28;20076;-84
2022/04/20 08:50:41;;;;;;;6.85;2.70;;;15.30;47.30;;;;;;4991618;28;20082;-84
2022/04/20 08:53:08;;;;;;;5.75;2.38;;;15.70;45.50;;;;;;4983512;28;20061;-84
2022/04/20 08:55:33;;;;;;;7.00;2.80;;;15.80;45.50;;;;;;4977449;28;20073;-84
2022/04/20 08:58:00;;;;;;;5.32;2.90;;;16.00;44.10;;;;;;4989412;28;20049;-84
2022/04/20 09:00:27;;;;;;;6.97;2.47;;;16.10;45.10;;;;;;4996966;28;20052;-84
2022/04/20 09:03:01;;;;;;;5.10;2.50;;;16.10;43.10;;;;;;5011992;28;20029;-85
2022/04/20 09:05:34;;;;;;;6.80;2.60;;;16.10;43.20;;;;;;5017518;28;20088;-85
2022/04/20 09:08:11;;;;;;;7.68;2.85;;;16.00;43.70;;;;;;5011633;28;20120;-85
2022/04/20 09:10:38;;;;;;;6.18;2.60;;;15.80;43.10;;;;;;5010863;28;20081;-85
2022/04/20 09:13:09;;;;;;;6.57;2.60;;;15.80;44.20;;;;;;4990585;28;20038;-85
2022/04/20 09:15:36;;;;;;;6.45;2.67;;;16.30;42.40;;;;;;5008884;28;20049;-85
2022/04/20 09:18:06;;;;;;;5.65;2.55;;;16.20;42.10;;;;;;4998248;28;20038;-85
2022/04/20 09:20:33;;;;;;;6.78;2.97;;;16.40;41.20;;;;;;4972917;28;20133;-84
2022/04/20 09:23:07;;;;;;;6.53;2.60;;;15.70;40.60;;;;;;4984612;28;20077;-84
2022/04/20 09:25:37;;;;;;;6.68;2.60;;;16.30;41.90;;;;;;5012192;28;20508;-84
2022/04/20 09:28:04;;;;;;;6.43;2.63;;;16.30;41.10;;;;;;4978681;28;20054;-84
2022/04/20 09:30:39;;;;;;;5.32;2.45;;;16.10;40.50;;;;;;4995841;28;20046;-84
2022/04/20 09:33:10;;;;;;;5.43;2.60;;;15.60;40.50;;;;;;5001584;28;20584;-84
2022/04/20 09:35:53;;;;;;;5.47;2.53;;;15.80;40.80;;;;;;4995647;28;20029;-84
2022/04/20 09:38:21;;;;;;;8.25;2.70;;;15.90;40.50;;;;;;4996414;28;20065;-84
2022/04/20 09:40:48;;;;;;;6.63;2.80;;;16.20;40.70;;;;;;4982209;28;20030;-84
2022/04/20 09:43:16;;;;;;;5.70;2.45;;;16.40;38.80;;;;;;5000504;28;20038;-84
2022/04/20 09:45:42;;;;;;;6.72;2.45;;;16.50;41.20;;;;;;5018178;28;20044;-84
2022/04/20 09:51:11;;;;;;;5.75;2.53;;;15.70;39.20;;;;;;5009813;28;20049;-84
2022/04/20 09:53:38;;;;;;;5.30;2.60;;;16.50;45.40;;;;;;4973150;28;20052;-84
2022/04/20 09:56:19;;;;;;;6.30;2.72;;;16.90;40.50;;;;;;4967400;28;20050;-84
2022/04/20 09:58:46;;;;;;;5.32;2.53;;;16.60;40.20;;;;;;4976578;28;20132;-84
2022/04/20 10:01:35;;;;;;;6.00;2.45;;;17.00;38.70;;;;;;4977387;28;20062;-84
2022/04/20 10:04:04;;;;;;;5.57;2.85;;;17.10;39.70;;;;;;4998477;28;20091;-84
2022/04/20 10:06:30;;;;;;;6.45;2.60;;;16.90;39.40;;;;;;4993217;28;20444;-84
2022/04/20 10:08:57;;;;;;;6.40;2.90;;;16.80;41.00;;;;;;5011585;28;20046;-84
2022/04/20 10:11:23;;;;;;;5.93;2.85;;;16.90;40.00;;;;;;5014698;28;20049;-84
2022/04/20 10:16:39;;;;;;;5.88;2.33;;;16.50;40.50;;;;;;5005719;28;20426;-84
2022/04/20 10:19:08;;;;;;;6.75;2.72;;;16.80;40.00;;;;;;4982903;28;20037;-84
2022/04/20 10:21:50;;;;;;;6.57;2.80;;;16.80;40.20;;;;;;4996255;28;20512;-84
2022/04/20 10:24:21;;;;;;;5.57;2.53;;;16.90;40.70;;;;;;4989501;28;20036;-84
2022/04/20 10:26:47;;;;;;;5.72;2.40;;;17.00;39.40;;;;;;4985247;28;20430;-84
2022/04/20 10:29:41;;;;;;;5.28;2.50;;;17.20;39.40;;;;;;4985932;28;20050;-84
2022/04/20 10:32:22;;;;;;;5.15;2.30;;;17.40;40.30;;;;;;5005143;28;20109;-84
2022/04/20 10:34:52;;;;;;;6.20;2.70;;;17.70;38.00;;;;;;5002074;28;20038;-84
2022/04/20 10:37:37;;;;;;;6.30;2.58;;;17.60;39.00;;;;;;4980982;28;20485;-84
2022/04/20 10:40:17;;;;;;;8.15;2.72;;;17.00;38.10;;;;;;4964650;28;20041;-84
2022/04/20 10:42:48;;;;;;;4.90;2.35;;;17.30;39.70;;;;;;4982875;28;20042;-84
2022/04/20 10:45:16;;;;;;;4.72;2.45;;;17.40;39.80;;;;;;4987658;28;20034;-84
2022/04/20 10:47:43;;;;;;;5.03;2.30;;;17.10;39.10;;;;;;4958792;28;20058;-84
2022/04/20 10:50:21;;;;;;;4.57;2.20;;;17.30;38.90;;;;;;4974087;28;20120;-84
2022/04/20 10:52:48;;;;;;;5.40;2.10;;;16.90;36.80;;;;;;5013997;28;20087;-83
2022/04/20 10:55:14;;;;;;;5.57;2.42;;;17.20;39.30;;;;;;4977629;28;20501;-83
2022/04/20 10:57:41;;;;;;;4.65;2.17;;;16.80;38.70;;;;;;4995325;28;20045;-83
2022/04/20 11:00:16;;;;;;;5.60;2.20;;;17.30;38.60;;;;;;4975602;28;20043;-83
2022/04/20 11:02:53;;;;;;;5.72;2.10;;;17.20;38.50;;;;;;4975011;28;20394;-83
2022/04/20 11:05:26;;;;;;;5.70;2.03;;;17.30;38.50;;;;;;4976177;28;20054;-83
2022/04/20 11:08:12;;;;;;;4.80;1.92;;;17.10;36.80;;;;;;4989248;28;20042;-83
2022/04/20 11:18:38;;;;;;;5.28;1.92;;;17.60;37.60;;;;;;4996815;28;20046;-83
2022/04/20 11:19:04;;;;;;;4.90;1.90;;;17.50;37.30;;;;;;4966175;28;20050;-84
2022/04/20 11:21:31;;;;;;;4.68;1.90;;;17.20;35.20;;;;;;4993914;28;20042;-84
2022/04/20 11:32:49;;;;;;;5.32;2.03;;;17.50;34.50;;;;;;5143142;27;20436;-79
2022/04/20 11:35:16;;;;;;;5.22;1.90;;;17.30;34.50;;;;;;5091979;28;20564;-79
2022/04/20 11:37:57;;;;;;;5.50;1.90;;;17.40;36.30;;;;;;5072327;28;20133;-80
2022/04/20 11:40:23;;;;;;;5.65;2.05;;;17.40;34.90;;;;;;5089479;28;20047;-80
2022/04/20 11:43:05;;;;;;;5.45;2.10;;;17.50;36.70;;;;;;5089104;28;20079;-82
2022/04/20 11:45:33;;;;;;;5.32;2.03;;;17.70;34.90;;;;;;5106206;28;20040;-82
2022/04/20 11:48:01;;;;;;;5.03;1.80;;;17.80;38.80;;;;;;5092499;28;20039;-82
2022/04/20 11:50:26;;;;;;;6.40;2.08;;;17.90;36.10;;;;;;5083525;28;20067;-82
2022/04/20 11:52:59;;;;;;;5.45;2.10;;;17.80;35.20;;;;;;5052159;28;20041;-82
2022/04/20 11:55:26;;;;;;;5.00;1.88;;;17.60;35.40;;;;;;5101837;27;20037;-82
2022/04/20 11:57:52;;;;;;;5.10;2.03;;;17.80;35.50;;;;;;5068723;28;20036;-83
2022/04/20 12:00:21;;;;;;;5.00;2.10;;;17.40;35.80;;;;;;5068381;28;20115;-83
2022/04/20 12:02:48;;;;;;;4.53;2.03;;;18.00;34.50;;;;;;5108411;28;20040;-83
2022/04/20 12:05:13;;;;;;;4.93;2.30;;;17.90;36.10;;;;;;5073540;28;20040;-83
2022/04/20 12:07:39;;;;;;;5.40;2.17;;;17.90;34.70;;;;;;5071873;28;20036;-83
2022/04/20 12:10:05;;;;;;;6.13;2.45;;;17.50;35.50;;;;;;5071814;28;20044;-83
2022/04/20 12:12:33;;;;;;;5.28;2.20;;;17.60;35.60;;;;;;5055022;28;20131;-83
2022/04/20 12:15:08;;;;;;;5.97;2.30;;;17.80;36.20;;;;;;5051229;28;20079;-83
2022/04/20 12:17:35;;;;;;;6.10;2.38;;;18.00;35.60;;;;;;5101578;28;20032;-83
2022/04/20 12:20:01;;;;;;;5.40;2.53;;;17.90;36.30;;;;;;5084585;28;20468;-82
2022/04/20 12:22:26;;;;;;;6.10;2.40;;;18.00;36.50;;;;;;5100220;28;20041;-82
2022/04/20 12:25:10;;;;;;;5.45;2.42;;;17.90;36.30;;;;;;5100418;28;20044;-82
2022/04/20 12:27:53;;;;;;;5.38;2.70;;;17.90;37.60;;;;;;5066200;28;20044;-82
2022/04/20 12:30:44;;;;;;;5.90;3.03;;;17.70;38.80;;;;;;5071312;28;20036;-82
2022/04/20 12:33:23;;;;;;;8.00;2.90;;;17.60;36.80;;;;;;5087035;28;20114;-82
2022/04/20 12:36:22;;;;;;;5.68;2.75;;;18.00;38.20;;;;;;5088358;28;20680;-82
2022/04/20 12:38:50;;;;;;;5.60;2.78;;;18.00;37.60;;;;;;5059965;28;20071;-82
2022/04/20 12:41:38;;;;;;;6.30;2.80;;;18.10;38.60;;;;;;5088405;28;20055;-83
2022/04/20 12:44:46;;;;;;;5.93;2.60;;;18.10;38.10;;;;;;5075324;28;20070;-83
2022/04/20 12:47:12;;;;;;;4.93;2.55;;;18.10;37.50;;;;;;5073638;28;20098;-83
2022/04/20 12:49:38;;;;;;;5.70;2.97;;;18.20;37.60;;;;;;5074283;28;20507;-83
2022/04/20 12:52:12;;;;;;;6.18;2.75;;;18.20;37.20;;;;;;5040771;28;20036;-83
2022/04/20 12:54:39;;;;;;;6.75;2.90;;;17.70;37.10;;;;;;5051438;28;20056;-83
2022/04/20 13:03:11;;;;;;;6.35;2.95;;;17.70;39.80;;;;;;5084082;28;20066;-82
2022/04/20 13:05:40;;;;;;;6.13;3.10;;;17.90;38.90;;;;;;5076836;28;20043;-82
2022/04/20 13:08:07;;;;;;;6.63;3.30;;;17.90;39.90;;;;;;5068441;28;20067;-82
2022/04/20 13:10:51;;;;;;;6.03;3.10;;;18.00;39.60;;;;;;5087330;28;20515;-82
2022/04/20 13:13:23;;;;;;;5.70;2.78;;;18.00;38.80;;;;;;5080265;28;20036;-82
2022/04/20 13:15:48;;;;;;;5.28;3.30;;;18.00;40.30;;;;;;5059336;28;20488;-82
2022/04/20 13:18:14;;;;;;;6.88;3.13;;;18.00;40.90;;;;;;5037205;28;20044;-83
2022/04/20 13:20:40;;;;;;;6.63;3.08;;;18.20;40.20;;;;;;5057080;28;20503;-83
2022/04/20 13:23:05;;;;;;;6.38;3.20;;;17.90;39.30;;;;;;5040241;28;20044;-82
2022/04/20 13:28:16;;;;;;;5.78;3.70;;;17.90;40.50;;;;;;5077602;28;20036;-82
2022/04/20 13:30:42;;;;;;;7.05;3.53;;;18.10;42.50;;;;;;5073835;28;20044;-82
2022/04/20 13:33:13;;;;;;;6.88;3.15;;;18.00;41.00;;;;;;5058388;28;20044;-82
2022/04/20 13:35:40;;;;;;;6.00;3.50;;;17.80;40.30;;;;;;5085582;28;20037;-83
2022/04/20 13:38:06;;;;;;;6.68;3.50;;;17.80;40.10;;;;;;5072372;28;20039;-82
2022/04/20 13:40:33;;;;;;;6.55;3.15;;;17.90;40.10;;;;;;5073613;28;20032;-82
2022/04/20 13:43:00;;;;;;;5.38;3.25;;;18.00;41.20;;;;;;5075470;28;20036;-82